createdAt,value
2019-02-04T00:07:25.564Z,16
2019-02-04T00:17:35.739Z,16
2019-02-04T00:27:45.260Z,16
2019-02-04T00:37:52.919Z,19
2019-02-04T00:47:59.730Z,16
2019-02-04T00:58:08.499Z,17
2019-02-04T01:08:16.681Z,16
2019-02-04T01:17:37.412Z,16
2019-02-04T01:27:46.081Z,17
2019-02-04T01:37:52.575Z,14
2019-02-04T01:47:58.629Z,17
2019-02-04T01:58:05.833Z,17
2019-02-04T02:08:14.431Z,16
2019-02-04T02:18:20.898Z,16
2019-02-04T02:28:28.287Z,16
2019-02-04T02:38:37.222Z,18
2019-02-04T02:48:44.004Z,14
2019-02-04T02:58:54.466Z,18
2019-02-04T03:09:00.356Z,15
2019-02-04T03:19:06.999Z,18
2019-02-04T03:29:16.400Z,15
2019-02-04T03:39:28.223Z,17
2019-02-04T03:48:46.922Z,19
2019-02-04T03:58:56.327Z,17
2019-02-04T04:09:01.416Z,16
2019-02-04T04:19:08.299Z,16
2019-02-04T04:29:15.381Z,15
2019-02-04T04:39:21.920Z,20
2019-02-04T04:49:28.903Z,16
2019-02-04T04:59:38.618Z,19
2019-02-04T05:09:42.747Z,22
2019-02-04T05:19:52.229Z,22
2019-02-04T05:29:59.098Z,23
2019-02-04T05:40:04.057Z,39
2019-02-04T05:49:23.790Z,26
2019-02-04T05:59:35.476Z,26
2019-02-04T06:09:42.205Z,24
2019-02-04T06:19:50.907Z,26
2019-02-04T06:29:59.889Z,26
2019-02-04T06:40:05.003Z,28
2019-02-04T06:50:15.162Z,26
2019-02-04T07:00:23.445Z,22
2019-02-04T07:08:42.704Z,23
2019-02-04T07:18:50.668Z,21
2019-02-04T07:20:03.645Z,22
2019-02-04T07:25:23.338Z,21
2019-02-04T07:35:27.468Z,22
2019-02-04T07:45:36.454Z,19
2019-02-04T07:55:43.381Z,23
2019-02-04T08:05:50.162Z,22
2019-02-04T08:15:58.669Z,16
2019-02-04T08:26:08.360Z,20
2019-02-04T08:27:25.018Z,17
2019-02-04T08:37:32.303Z,19
2019-02-04T08:47:40.316Z,16
2019-02-04T08:57:47.966Z,14
2019-02-04T09:07:54.908Z,18
2019-02-04T09:17:55.177Z,14
2019-02-04T09:27:57.476Z,14
2019-02-04T09:32:15.121Z,17
2019-02-04T09:42:21.178Z,14
2019-02-04T09:52:29.811Z,11
2019-02-04T10:02:49.976Z,14
2019-02-04T10:09:13.337Z,12
2019-02-04T10:19:18.470Z,12
2019-02-04T10:29:25.189Z,15
2019-02-04T10:39:33.872Z,15
2019-02-04T10:49:43.119Z,16
2019-02-04T10:59:50.522Z,11
2019-02-04T11:10:03.170Z,11
2019-02-04T11:20:11.335Z,10
2019-02-04T11:26:15.586Z,9
2019-02-04T11:28:31.438Z,11
2019-02-04T11:29:40.616Z,10
2019-02-04T11:38:14.111Z,15
2019-02-04T11:42:44.398Z,14
2019-02-04T11:53:18.565Z,16
2019-02-04T11:54:16.064Z,15
2019-02-04T11:57:29.247Z,12
2019-02-04T11:59:42.491Z,15
2019-02-04T12:09:55.355Z,16
2019-02-04T12:20:02.353Z,17
2019-02-04T12:30:08.390Z,16
2019-02-04T12:40:35.207Z,17
2019-02-04T12:41:44.160Z,17
2019-02-04T12:43:56.680Z,18
2019-02-04T12:54:10.661Z,17
2019-02-04T12:59:29.130Z,22
2019-02-04T13:09:48.944Z,16
2019-02-04T13:19:56.936Z,16
2019-02-04T13:28:16.262Z,17
2019-02-04T13:38:26.599Z,16
2019-02-04T13:41:07.066Z,14
2019-02-04T13:42:46.389Z,18
2019-02-04T13:52:52.410Z,17
2019-02-04T14:03:06.652Z,15
2019-02-04T14:13:10.537Z,14
2019-02-04T14:20:26.521Z,15
2019-02-04T14:22:11.026Z,12
2019-02-04T14:27:37.869Z,16
2019-02-04T14:36:59.805Z,11
2019-02-04T14:44:15.447Z,13
2019-02-04T14:48:43.917Z,14
2019-02-04T14:52:59.379Z,18
2019-02-04T14:55:12.861Z,16
2019-02-04T14:56:31.473Z,14
2019-02-04T14:57:40.293Z,16
2019-02-04T15:04:00.235Z,13
2019-02-04T15:05:12.222Z,14
2019-02-04T15:15:21.745Z,17
2019-02-04T15:24:42.154Z,19
2019-02-04T15:34:51.371Z,35
2019-02-04T15:35:38.540Z,32
2019-02-04T15:45:46.540Z,22
2019-02-04T15:55:52.351Z,25
2019-02-04T16:07:24.561Z,23
2019-02-04T16:23:35.960Z,27
2019-02-04T16:33:43.701Z,31
2019-02-04T16:36:11.422Z,28
2019-02-04T16:46:17.902Z,31
2019-02-04T16:51:47.841Z,26
2019-02-04T17:01:59.632Z,32
2019-02-04T17:12:04.587Z,26
2019-02-04T17:22:13.525Z,26
2019-02-04T17:25:28.189Z,35
2019-02-04T17:35:39.751Z,38
2019-02-04T17:37:18.620Z,33
2019-02-04T17:42:36.876Z,39
2019-02-04T17:52:40.382Z,37
2019-02-04T18:00:00.308Z,39
2019-02-04T18:10:05.751Z,35
2019-02-04T18:20:11.895Z,34
2019-02-04T18:24:29.908Z,35
2019-02-04T18:28:48.652Z,34
2019-02-04T18:38:52.852Z,29
2019-02-04T18:48:59.364Z,33
2019-02-04T18:59:06.440Z,34
2019-02-04T19:07:24.206Z,31
2019-02-04T19:17:33.022Z,36
2019-02-04T19:27:44.285Z,38
2019-02-04T19:37:58.780Z,32
2019-02-04T19:39:12.436Z,33
2019-02-04T19:40:52.268Z,34
2019-02-04T19:42:03.531Z,31
2019-02-04T19:52:07.950Z,35
2019-02-04T20:02:15.812Z,35
2019-02-04T20:12:24.614Z,37
2019-02-04T20:22:34.680Z,31
2019-02-04T20:32:42.103Z,29
2019-02-04T20:42:50.701Z,23
2019-02-04T20:52:58.657Z,18
2019-02-04T21:03:05.151Z,28
2019-02-04T21:13:17.930Z,18
2019-02-04T21:23:22.512Z,17
2019-02-04T21:25:36.623Z,15
2019-02-04T21:35:47.630Z,16
2019-02-04T21:45:56.491Z,16
2019-02-04T21:56:01.802Z,16
2019-02-04T22:06:10.601Z,36
2019-02-04T22:16:17.001Z,14
2019-02-04T22:26:26.367Z,12
2019-02-04T22:36:34.371Z,12
2019-02-04T22:46:42.187Z,14
2019-02-04T22:56:49.943Z,12
2019-02-04T23:06:57.099Z,8
2019-02-04T23:17:04.475Z,11
2019-02-04T23:27:17.721Z,9
2019-02-04T23:37:24.683Z,10
2019-02-04T23:47:36.651Z,11
2019-02-04T23:57:42.852Z,10
